createdAt,value
2022-10-28T07:47:32.494Z,101751.47
2022-10-28T07:49:58.815Z,101756.50
2022-10-28T07:52:25.177Z,101759.81
2022-10-28T07:54:55.046Z,101759.81
2022-10-28T07:57:21.353Z,101760.66
2022-10-28T07:59:47.670Z,101769.34
2022-10-28T08:02:22.247Z,101768.38
2022-10-28T08:04:48.977Z,101773.59
2022-10-28T08:07:15.972Z,101769.25
2022-10-28T08:09:42.322Z,101773.53
2022-10-28T08:12:09.332Z,101762.22
2022-10-28T08:14:35.644Z,101759.63
2022-10-28T08:17:02.139Z,101764.03
2022-10-28T08:19:28.481Z,101768.31
2022-10-28T08:21:54.899Z,101778.75
2022-10-28T08:24:21.247Z,101758.81
2022-10-28T08:26:47.774Z,101762.22
2022-10-28T08:29:14.368Z,101767.47
2022-10-28T08:31:40.705Z,101770.94
2022-10-28T08:34:07.537Z,101776.97
2022-10-28T08:36:34.419Z,101771.75
2022-10-28T08:39:01.636Z,101777.81
2022-10-28T08:41:39.266Z,101767.34
2022-10-28T08:44:36.406Z,101769.97
2022-10-28T08:47:15.315Z,101772.59
2022-10-28T08:49:47.053Z,101773.44
2022-10-28T08:52:39.414Z,101782.00
2022-10-28T08:55:20.710Z,101775.94
2022-10-28T08:57:52.778Z,101768.94
2022-10-28T09:00:37.768Z,101762.91
2022-10-28T09:03:22.243Z,101757.56
2022-10-28T09:05:54.273Z,101766.34
2022-10-28T09:08:26.467Z,101767.16
2022-10-28T09:11:10.789Z,101768.00
2022-10-28T09:14:03.405Z,101765.41
2022-10-28T09:16:59.810Z,101771.47
2022-10-28T09:19:49.144Z,101767.06
2022-10-28T09:22:34.219Z,101776.69
2022-10-28T09:25:25.248Z,101762.78
2022-10-28T09:28:16.123Z,101762.78
2022-10-28T09:30:56.654Z,101768.00
2022-10-28T09:33:46.950Z,101760.19
2022-10-28T09:36:19.375Z,101761.94
2022-10-28T09:38:45.902Z,101759.44
2022-10-28T09:41:27.142Z,101769.88
2022-10-28T09:43:58.796Z,101777.69
2022-10-28T09:46:32.029Z,101770.72
2022-10-28T09:49:11.513Z,101760.38
2022-10-28T09:51:37.748Z,101765.59
2022-10-28T09:54:04.290Z,101775.09
2022-10-28T09:56:30.931Z,101773.44
2022-10-28T09:59:00.618Z,101762.13
2022-10-28T10:01:32.224Z,101770.72
2022-10-28T10:03:58.909Z,101770.81
2022-10-28T10:06:30.380Z,101768.22
2022-10-28T10:08:56.949Z,101773.34
2022-10-28T10:11:36.982Z,101770.72
2022-10-28T10:14:11.741Z,101770.72
2022-10-28T10:16:52.501Z,101772.47
2022-10-28T10:19:18.848Z,101772.59
2022-10-28T10:21:46.425Z,101760.38
2022-10-28T10:24:33.684Z,101755.06
2022-10-28T10:27:03.589Z,101748.88
2022-10-28T10:29:31.293Z,101747.13
2022-10-28T10:32:15.100Z,101752.34
2022-10-28T10:35:13.661Z,101743.56
2022-10-28T10:37:47.103Z,101745.34
2022-10-28T10:40:31.152Z,101745.34
2022-10-28T10:43:15.468Z,101745.25
2022-10-28T10:45:48.656Z,101740.94
2022-10-28T10:48:15.792Z,101734.91
2022-10-28T10:50:46.402Z,101733.13
2022-10-28T10:53:21.543Z,101719.13
2022-10-28T10:55:54.369Z,101733.88
2022-10-28T10:58:24.097Z,101740.69
2022-10-28T11:00:52.917Z,101746.72
2022-10-28T11:03:24.017Z,101745.91
2022-10-28T11:06:18.383Z,101753.63
2022-10-28T11:08:44.133Z,101747.44
2022-10-28T11:11:19.757Z,101735.25
2022-10-28T11:13:47.426Z,101735.25
2022-10-28T11:16:22.763Z,101736.19
2022-10-28T11:18:51.659Z,101736.06
2022-10-28T11:21:34.754Z,101737.75
2022-10-28T11:24:04.052Z,101735.16
2022-10-28T11:26:36.329Z,101736.06
2022-10-28T11:29:14.727Z,101742.13
2022-10-28T11:32:12.668Z,101739.50
2022-10-28T11:34:44.758Z,101738.59
2022-10-28T11:37:34.967Z,101734.28
2022-10-28T11:40:36.830Z,101736.91
2022-10-28T11:43:26.142Z,101743.81
2022-10-28T11:46:14.430Z,101737.75
2022-10-28T11:49:10.191Z,101750.81
2022-10-28T11:51:52.286Z,101756.78
2022-10-28T11:54:25.829Z,101744.63
2022-10-28T11:57:04.126Z,101737.75
2022-10-28T11:59:59.364Z,101730.84
2022-10-28T12:02:53.190Z,101750.81
2022-10-28T12:05:31.791Z,101754.34
2022-10-28T12:08:07.025Z,101753.44
2022-10-28T12:10:50.335Z,101754.34
2022-10-28T12:13:39.932Z,101751.75
2022-10-28T12:16:22.772Z,101771.72
2022-10-28T12:18:59.161Z,101746.53
2022-10-28T12:21:40.324Z,101760.41
2022-10-28T12:24:14.202Z,101745.59
2022-10-28T12:26:43.951Z,101742.13
2022-10-28T12:29:16.503Z,101753.44
2022-10-28T12:31:51.910Z,101759.47
2022-10-28T12:34:28.160Z,101763.03
2022-10-28T12:37:05.221Z,101774.31
2022-10-28T12:39:37.369Z,101770.84
2022-10-28T12:42:21.475Z,101763.88
2022-10-28T12:44:52.836Z,101762.19
2022-10-28T12:47:29.013Z,101756.97
2022-10-28T12:50:16.453Z,101753.44
2022-10-28T12:53:01.315Z,101759.47
2022-10-28T12:55:32.819Z,101760.31
2022-10-28T12:58:04.948Z,101775.16
2022-10-28T13:00:46.828Z,101779.53
2022-10-28T13:03:15.319Z,101791.66
2022-10-28T13:05:50.322Z,101793.44
2022-10-28T13:08:41.620Z,101807.31
2022-10-28T13:11:41.669Z,101811.72
2022-10-28T13:14:45.626Z,101823.09
2022-10-28T13:17:18.909Z,101815.16
2022-10-28T13:20:26.826Z,101808.19
2022-10-28T13:23:15.714Z,101813.41
2022-10-28T13:26:08.475Z,101803.88
2022-10-28T13:28:41.993Z,101816.13
2022-10-28T13:31:08.810Z,101806.50
2022-10-28T13:33:37.876Z,101824.78
2022-10-28T13:36:38.561Z,101809.09
2022-10-28T13:39:21.119Z,101825.59
2022-10-28T13:41:48.927Z,101829.91
2022-10-28T13:44:27.079Z,101825.59
2022-10-28T13:46:59.285Z,101825.59
2022-10-28T13:49:36.063Z,101823.00
2022-10-28T13:52:04.092Z,101814.22
2022-10-28T13:54:37.467Z,101825.53
2022-10-28T13:57:09.688Z,101817.75
2022-10-28T13:59:49.034Z,101825.59
2022-10-28T14:02:36.015Z,101831.69
2022-10-28T14:05:12.402Z,101830.81
2022-10-28T14:07:53.478Z,101844.84
2022-10-28T14:10:23.951Z,101849.09
2022-10-28T14:13:21.562Z,101856.94
2022-10-28T14:15:49.542Z,101850.88
2022-10-28T14:21:05.203Z,101869.19
2022-10-28T14:23:36.326Z,101860.50
2022-10-28T14:26:05.255Z,101864.78
2022-10-28T14:28:31.594Z,101860.50
2022-10-28T14:31:11.228Z,101850.06
2022-10-28T14:33:43.731Z,101837.00
2022-10-28T14:36:26.253Z,101846.59
2022-10-28T14:39:17.215Z,101856.31
2022-10-28T14:42:08.483Z,101853.59
2022-10-28T14:44:58.285Z,101852.69
2022-10-28T14:47:57.682Z,101863.13
2022-10-28T14:50:32.451Z,101871.88
2022-10-28T14:53:01.791Z,101884.94
2022-10-28T14:55:31.658Z,101892.78
2022-10-28T14:58:20.593Z,101887.66
2022-10-28T15:01:26.994Z,101899.78
2022-10-28T15:03:57.770Z,101881.50
2022-10-28T15:06:32.288Z,101883.16
2022-10-28T15:09:16.343Z,101885.78
2022-10-28T15:11:50.051Z,101891.00
2022-10-28T15:14:29.972Z,101888.28
2022-10-28T15:16:56.787Z,101889.25
2022-10-28T15:19:25.426Z,101889.25
2022-10-28T15:22:14.552Z,101885.88
2022-10-28T15:24:44.583Z,101899.78
2022-10-28T15:27:14.116Z,101906.75
2022-10-28T15:29:42.725Z,101907.63
2022-10-28T15:32:26.418Z,101912.84
2022-10-28T15:34:53.102Z,101914.69
2022-10-28T15:37:22.372Z,101925.13
2022-10-28T15:39:52.240Z,101922.53
2022-10-28T15:42:42.043Z,101923.47
2022-10-28T15:45:23.222Z,101930.34
2022-10-28T15:47:50.247Z,101924.31
2022-10-28T15:50:16.504Z,101928.69
2022-10-28T15:52:45.369Z,101925.22
2022-10-28T15:55:35.727Z,101927.84
2022-10-28T15:58:16.574Z,101933.06
2022-10-28T16:00:52.560Z,101935.78
2022-10-28T16:03:40.675Z,101943.72
2022-10-28T16:06:22.399Z,101934.19
2022-10-28T16:09:00.449Z,101940.25
2022-10-28T16:11:27.335Z,101946.41
2022-10-28T16:13:53.714Z,101942.97
2022-10-28T16:16:28.827Z,101954.25
2022-10-28T16:19:08.420Z,101951.53
2022-10-28T16:21:35.866Z,101954.97
2022-10-28T16:24:02.920Z,101958.44
2022-10-28T16:26:31.495Z,101972.34
2022-10-28T16:28:57.879Z,101988.00
2022-10-28T16:31:28.347Z,101985.41
2022-10-28T16:33:54.790Z,101988.00
2022-10-28T16:36:21.149Z,101994.09
2022-10-28T16:38:47.558Z,101997.63
2022-10-28T16:41:18.588Z,102005.47
2022-10-28T16:43:45.880Z,101998.44
2022-10-28T16:46:13.226Z,102002.75
2022-10-28T16:48:40.783Z,102000.22
2022-10-28T16:51:17.816Z,102002.00
2022-10-28T16:53:47.136Z,102008.91
2022-10-28T16:56:15.705Z,102009.75
2022-10-28T16:58:43.348Z,102020.09
2022-10-28T17:01:10.364Z,102025.16
2022-10-28T17:03:36.801Z,102014.59
2022-10-28T17:06:03.533Z,102017.13
2022-10-28T17:08:56.632Z,102017.84
2022-10-28T17:11:16.236Z,102010.88
2022-10-28T17:13:42.564Z,102016.94
2022-10-28T17:16:08.885Z,102010.78
2022-10-28T17:18:35.198Z,102015.06
2022-10-28T17:21:02.972Z,102014.13
2022-10-28T17:23:29.841Z,102022.78
2022-10-28T17:25:57.997Z,102029.72
2022-10-28T17:28:24.305Z,102025.31
2022-10-28T17:30:50.597Z,102034.94
2022-10-28T17:33:16.960Z,102041.84
2022-10-28T17:35:43.282Z,102047.91
2022-10-28T17:38:09.582Z,102049.59
2022-10-28T17:40:35.914Z,102060.03
2022-10-28T17:43:02.213Z,102062.66
2022-10-28T17:45:28.539Z,102059.97
2022-10-28T17:47:54.870Z,102061.66
2022-10-28T17:50:21.185Z,102068.53
2022-10-28T17:52:47.626Z,102072.03
2022-10-28T17:55:14.055Z,102078.06
2022-10-28T17:57:40.417Z,102076.19
2022-10-28T18:00:07.433Z,102070.06
2022-10-28T18:02:34.012Z,102079.56
2022-10-28T18:05:00.386Z,102090.84
2022-10-28T18:07:26.715Z,102087.31
2022-10-28T18:09:53.172Z,102087.41
2022-10-28T18:12:19.540Z,102090.03
2022-10-28T18:14:45.838Z,102083.03
2022-10-28T18:17:14.204Z,102089.00
2022-10-28T18:19:40.509Z,102085.44
2022-10-28T18:22:06.857Z,102092.44
2022-10-28T18:24:33.166Z,102098.50
2022-10-28T18:26:59.511Z,102113.25
2022-10-28T18:29:25.943Z,102105.44
2022-10-28T18:31:52.306Z,102119.31
2022-10-28T18:34:18.701Z,102132.38
2022-10-28T18:36:45.270Z,102139.28
2022-10-28T18:39:11.588Z,102141.91
2022-10-28T18:41:41.755Z,102141.09
2022-10-28T18:44:13.970Z,102141.00
2022-10-28T18:46:40.546Z,102137.44
2022-10-28T18:49:06.962Z,102126.13
2022-10-28T18:51:34.370Z,102120.81
2022-10-28T18:54:00.719Z,102120.00
2022-10-28T18:56:31.892Z,102113.94
2022-10-28T18:58:58.902Z,102118.22
2022-10-28T19:01:27.861Z,102123.44
2022-10-28T19:03:57.049Z,102117.28
2022-10-28T19:06:24.626Z,102142.50
2022-10-28T19:08:53.560Z,102146.75
2022-10-28T19:11:21.714Z,102147.63
2022-10-28T19:13:48.790Z,102134.66
2022-10-28T19:16:15.357Z,102151.06
2022-10-28T19:18:41.721Z,102152.84
2022-10-28T19:21:12.415Z,102156.28
2022-10-28T19:23:39.221Z,102154.50
2022-10-28T19:26:06.719Z,102153.59
2022-10-28T19:28:44.399Z,102147.44
2022-10-28T19:31:17.013Z,102156.00
2022-10-28T19:33:44.427Z,102163.03
2022-10-28T19:36:17.397Z,102159.50
2022-10-28T19:38:44.505Z,102161.06
2022-10-28T19:41:13.890Z,102164.53
2022-10-28T19:43:40.467Z,102167.06
2022-10-28T19:46:12.837Z,102165.25
2022-10-28T19:48:40.880Z,102163.41
2022-10-28T19:51:09.104Z,102177.22
2022-10-28T19:53:35.429Z,102179.00
2022-10-28T19:56:03.558Z,102184.16
2022-10-28T19:58:31.029Z,102189.38
2022-10-28T20:01:02.363Z,102188.41
2022-10-28T20:03:34.235Z,102189.19
2022-10-28T20:06:07.322Z,102189.19
2022-10-28T20:08:38.225Z,102194.41
2022-10-28T20:11:08.121Z,102212.63
2022-10-28T20:13:35.996Z,102201.41
2022-10-28T20:16:08.086Z,102199.72
2022-10-28T20:18:34.695Z,102199.72
2022-10-28T20:21:17.070Z,102215.50
2022-10-28T20:23:45.401Z,102209.31
2022-10-28T20:26:12.953Z,102218.88
2022-10-28T20:28:39.909Z,102215.31
2022-10-28T20:31:15.092Z,102211.00
2022-10-28T20:33:44.308Z,102222.41
2022-10-28T20:36:33.265Z,102218.03
2022-10-28T20:39:06.638Z,102224.19
2022-10-28T20:41:34.892Z,102230.44
2022-10-28T20:44:02.595Z,102233.91
2022-10-28T20:46:29.370Z,102227.06
2022-10-28T20:48:56.427Z,102226.22
2022-10-28T20:51:24.903Z,102226.31
2022-10-28T20:53:51.636Z,102236.75
2022-10-28T20:56:21.580Z,102231.53
2022-10-28T20:58:48.021Z,102236.84
2022-10-28T21:01:20.630Z,102236.84
2022-10-28T21:03:48.444Z,102229.00
2022-10-28T21:06:16.269Z,102236.13
2022-10-28T21:08:43.530Z,102235.28
2022-10-28T21:11:13.300Z,102235.28
2022-10-28T21:13:40.143Z,102236.22
2022-10-28T21:16:08.671Z,102237.03
2022-10-28T21:18:36.323Z,102246.66
2022-10-28T21:21:03.298Z,102242.34
2022-10-28T21:23:30.148Z,102229.28
2022-10-28T21:25:59.765Z,102231.91
2022-10-28T21:28:28.521Z,102228.44
2022-10-28T21:31:06.450Z,102233.78
2022-10-28T21:33:34.898Z,102237.22
2022-10-28T21:36:03.437Z,102236.38
2022-10-28T21:38:30.415Z,102232.00
2022-10-28T21:41:02.154Z,102239.81
2022-10-28T21:43:30.337Z,102240.75
2022-10-28T21:45:56.886Z,102237.31
2022-10-28T21:48:23.631Z,102239.09
2022-10-28T21:50:52.099Z,102233.88
2022-10-28T21:53:19.406Z,102234.69
2022-10-28T21:55:47.304Z,102239.91
2022-10-28T21:58:15.545Z,102240.84
2022-10-28T22:00:43.014Z,102242.63
2022-10-28T22:03:10.814Z,102240.84
2022-10-28T22:05:37.259Z,102239.19
2022-10-28T22:08:05.149Z,102245.25
2022-10-28T22:10:31.917Z,102245.25
2022-10-28T22:12:58.299Z,102245.31
2022-10-28T22:15:24.660Z,102254.00
2022-10-28T22:17:51.009Z,102248.03
2022-10-28T22:20:17.417Z,102254.94
2022-10-28T22:22:43.778Z,102257.56
2022-10-28T22:25:10.655Z,102264.53
2022-10-28T22:27:37.580Z,102265.41
2022-10-28T22:30:04.394Z,102266.31
2022-10-28T22:32:30.712Z,102270.72
2022-10-28T22:34:57.033Z,102268.09
2022-10-28T22:37:23.354Z,102268.09
2022-10-28T22:39:49.661Z,102275.94
2022-10-28T22:42:16.049Z,102281.19
2022-10-28T22:44:42.349Z,102275.94
2022-10-28T22:47:08.669Z,102276.88
2022-10-28T22:49:35.000Z,102276.88
2022-10-28T22:52:01.313Z,102276.88
2022-10-28T22:54:27.638Z,102284.72
2022-10-28T22:56:53.947Z,102278.63
2022-10-28T22:59:20.562Z,102283.00
2022-10-28T23:01:46.979Z,102276.97
2022-10-28T23:04:13.461Z,102276.09
2022-10-28T23:06:39.841Z,102270.88
2022-10-28T23:09:06.189Z,102277.88
2022-10-28T23:11:32.563Z,102271.81
2022-10-28T23:13:58.926Z,102267.44
2022-10-28T23:16:25.229Z,102276.09
2022-10-28T23:18:55.445Z,102274.44
2022-10-28T23:21:24.520Z,102273.56
2022-10-28T23:23:55.420Z,102258.75
2022-10-28T23:26:22.504Z,102263.97
2022-10-28T23:28:54.974Z,102257.06
2022-10-28T23:31:22.229Z,102264.91
2022-10-28T23:33:49.472Z,102255.28
2022-10-28T23:36:16.563Z,102257.91
2022-10-28T23:38:43.361Z,102267.53
2022-10-28T23:41:17.928Z,102264.91
2022-10-28T23:43:44.933Z,102276.28
2022-10-28T23:46:11.610Z,102268.44
2022-10-28T23:48:38.374Z,102270.22
2022-10-28T23:51:05.093Z,102272.84
2022-10-28T23:53:31.677Z,102279.84
2022-10-28T23:55:58.056Z,102279.75
2022-10-28T23:58:24.491Z,102277.22
